createdAt,value
2023-05-01T00:00:29.863Z,10.60
2023-05-01T00:02:56.946Z,10.60
2023-05-01T00:05:24.623Z,10.60
2023-05-01T00:07:51.959Z,10.60
2023-05-01T00:10:20.194Z,10.70
2023-05-01T00:12:46.931Z,10.70
2023-05-01T00:15:15.003Z,10.70
2023-05-01T00:17:42.092Z,10.70
2023-05-01T00:20:10.923Z,10.70
2023-05-01T00:22:37.991Z,10.70
2023-05-01T00:25:06.160Z,10.70
2023-05-01T00:27:33.232Z,10.70
2023-05-01T00:30:00.654Z,10.80
2023-05-01T00:32:27.407Z,10.80
2023-05-01T00:34:56.781Z,10.80
2023-05-01T00:37:24.548Z,10.80
2023-05-01T00:39:51.717Z,10.80
2023-05-01T00:42:19.279Z,10.90
2023-05-01T00:44:46.608Z,10.90
2023-05-01T00:47:14.889Z,10.90
2023-05-01T00:49:42.831Z,10.90
2023-05-01T00:52:11.130Z,10.90
2023-05-01T00:54:38.086Z,11.00
2023-05-01T00:57:06.812Z,10.90
2023-05-01T00:59:34.411Z,11.00
2023-05-01T01:02:01.745Z,11.00
2023-05-01T01:04:31.496Z,11.00
2023-05-01T01:07:01.289Z,10.90
2023-05-01T01:09:37.729Z,10.90
2023-05-01T01:12:17.170Z,10.90
2023-05-01T01:15:05.440Z,10.90
2023-05-01T01:17:51.984Z,10.90
2023-05-01T01:20:27.480Z,10.90
2023-05-01T01:23:15.271Z,11.00
2023-05-01T01:26:22.962Z,11.00
2023-05-01T01:29:12.427Z,11.10
2023-05-01T01:31:58.299Z,11.10
2023-05-01T01:34:40.291Z,11.00
2023-05-01T01:37:30.473Z,11.00
2023-05-01T01:40:08.894Z,11.00
2023-05-01T01:42:45.280Z,11.00
2023-05-01T01:45:23.145Z,11.00
2023-05-01T01:47:50.042Z,10.90
2023-05-01T01:50:16.786Z,10.90
2023-05-01T01:52:45.028Z,10.80
2023-05-01T01:55:13.422Z,10.90
2023-05-01T01:57:43.026Z,10.90
2023-05-01T02:00:13.197Z,10.90
2023-05-01T02:02:40.968Z,10.90
2023-05-01T02:05:08.887Z,10.90
2023-05-01T02:07:38.094Z,10.90
2023-05-01T02:10:06.172Z,10.90
2023-05-01T02:12:33.147Z,11.00
2023-05-01T02:15:00.606Z,10.90
2023-05-01T02:17:28.157Z,11.00
2023-05-01T02:19:57.511Z,11.00
2023-05-01T02:22:25.798Z,11.00
2023-05-01T02:24:54.146Z,11.00
2023-05-01T02:27:25.785Z,11.10
2023-05-01T02:29:54.033Z,11.00
2023-05-01T02:32:21.730Z,11.10
2023-05-01T02:34:49.808Z,11.00
2023-05-01T02:37:17.603Z,11.00
2023-05-01T02:39:47.536Z,11.00
2023-05-01T02:42:16.048Z,11.10
2023-05-01T02:44:48.148Z,11.10
2023-05-01T02:47:18.326Z,11.10
2023-05-01T02:49:48.069Z,11.00
2023-05-01T02:52:18.792Z,11.10
2023-05-01T02:54:49.295Z,11.10
2023-05-01T02:57:18.114Z,11.10
2023-05-01T02:59:45.880Z,11.10
2023-05-01T03:02:13.481Z,11.10
2023-05-01T03:04:42.171Z,11.10
2023-05-01T03:07:09.380Z,11.10
2023-05-01T03:09:36.728Z,11.10
2023-05-01T03:12:04.009Z,11.10
2023-05-01T03:14:31.024Z,11.00
2023-05-01T03:16:58.322Z,11.00
2023-05-01T03:19:25.975Z,10.90
2023-05-01T03:21:53.031Z,10.90
2023-05-01T03:24:20.963Z,10.90
2023-05-01T03:26:48.743Z,10.90
2023-05-01T03:29:16.039Z,10.90
2023-05-01T03:31:44.500Z,10.90
2023-05-01T03:34:12.034Z,10.90
2023-05-01T03:36:39.750Z,10.90
2023-05-01T03:39:08.571Z,10.90
2023-05-01T03:41:54.320Z,10.90
2023-05-01T03:44:24.947Z,10.90
2023-05-01T03:46:51.879Z,10.90
2023-05-01T03:49:24.685Z,10.90
2023-05-01T03:51:52.380Z,10.90
2023-05-01T03:54:20.033Z,11.00
2023-05-01T03:57:04.269Z,11.00
2023-05-01T03:59:31.427Z,11.00
2023-05-01T04:01:58.826Z,11.00
2023-05-01T04:04:30.091Z,11.00
2023-05-01T04:06:58.489Z,11.00
2023-05-01T04:09:25.878Z,11.00
2023-05-01T04:11:52.921Z,11.00
2023-05-01T04:14:20.219Z,11.00
2023-05-01T04:16:47.822Z,10.90
2023-05-01T04:19:15.205Z,10.90
2023-05-01T04:21:46.077Z,10.90
2023-05-01T04:24:13.603Z,10.90
2023-05-01T04:26:42.611Z,10.90
2023-05-01T04:29:10.054Z,10.80
2023-05-01T04:31:37.632Z,10.80
2023-05-01T04:34:06.758Z,10.80
2023-05-01T04:36:36.584Z,10.80
2023-05-01T04:39:04.156Z,10.70
2023-05-01T04:41:31.350Z,10.80
2023-05-01T04:43:58.836Z,10.70
2023-05-01T04:46:26.616Z,10.70
2023-05-01T04:48:54.135Z,10.80
2023-05-01T04:51:22.662Z,10.80
2023-05-01T04:53:51.168Z,10.90
2023-05-01T04:56:24.883Z,10.90
2023-05-01T04:58:56.180Z,10.90
2023-05-01T05:01:26.384Z,10.90
2023-05-01T05:03:53.296Z,10.90
2023-05-01T05:06:21.751Z,10.90
2023-05-01T05:08:52.286Z,10.90
2023-05-01T05:11:19.575Z,11.00
2023-05-01T05:13:57.926Z,11.00
2023-05-01T05:16:25.385Z,11.00
2023-05-01T05:18:55.382Z,11.00
2023-05-01T05:21:23.068Z,11.00
2023-05-01T05:23:56.098Z,11.10
2023-05-01T05:26:24.858Z,11.10
2023-05-01T05:28:52.403Z,11.10
2023-05-01T05:31:19.996Z,11.10
2023-05-01T05:33:47.377Z,11.10
2023-05-01T05:36:16.199Z,11.10
2023-05-01T05:38:44.178Z,11.20
2023-05-01T05:41:15.362Z,11.30
2023-05-01T05:43:42.486Z,11.30
2023-05-01T05:46:09.980Z,11.30
2023-05-01T05:48:38.780Z,11.30
2023-05-01T05:51:06.018Z,11.40
2023-05-01T05:53:34.715Z,11.40
2023-05-01T05:56:02.306Z,11.50
2023-05-01T05:58:30.494Z,11.40
2023-05-01T06:00:57.907Z,11.50
2023-05-01T06:03:25.259Z,11.50
2023-05-01T06:05:55.304Z,11.60
2023-05-01T06:08:22.591Z,11.60
2023-05-01T06:10:50.094Z,11.70
2023-05-01T06:13:17.556Z,11.70
2023-05-01T06:15:47.773Z,11.70
2023-05-01T06:18:15.087Z,11.70
2023-05-01T06:20:42.724Z,11.70
2023-05-01T06:23:10.325Z,11.70
2023-05-01T06:26:00.917Z,11.70
2023-05-01T06:28:27.990Z,11.80
2023-05-01T06:30:55.875Z,11.70
2023-05-01T06:33:25.011Z,11.80
2023-05-01T06:36:08.201Z,11.80
2023-05-01T06:38:36.129Z,11.90
2023-05-01T06:41:05.960Z,12.00
2023-05-01T06:43:33.637Z,12.10
2023-05-01T06:46:01.569Z,12.10
2023-05-01T06:48:28.894Z,12.20
2023-05-01T06:50:56.574Z,12.20
2023-05-01T06:53:23.666Z,12.30
2023-05-01T06:55:51.089Z,12.40
2023-05-01T06:58:23.844Z,12.40
2023-05-01T07:00:51.403Z,12.60
2023-05-01T07:03:18.930Z,12.70
2023-05-01T07:05:46.659Z,12.80
2023-05-01T07:08:14.204Z,13.00
2023-05-01T07:10:42.238Z,13.10
2023-05-01T07:13:09.536Z,13.20
2023-05-01T07:15:37.094Z,13.30
2023-05-01T07:18:06.384Z,13.40
2023-05-01T07:20:34.865Z,13.40
2023-05-01T07:23:03.145Z,13.50
2023-05-01T07:25:31.288Z,13.70
2023-05-01T07:28:00.724Z,13.80
2023-05-01T07:30:30.782Z,13.90
2023-05-01T07:32:59.164Z,14.00
2023-05-01T07:35:32.293Z,14.10
2023-05-01T07:37:59.559Z,14.30
2023-05-01T07:40:27.285Z,14.30
2023-05-01T07:42:54.863Z,14.30
2023-05-01T07:45:22.263Z,14.20
2023-05-01T07:47:52.250Z,14.30
2023-05-01T07:50:19.734Z,14.10
2023-05-01T07:52:47.314Z,14.20
2023-05-01T07:55:19.153Z,14.10
2023-05-01T07:57:46.366Z,14.20
2023-05-01T08:00:16.389Z,14.30
2023-05-01T08:02:43.398Z,14.10
2023-05-01T08:05:10.696Z,14.10
2023-05-01T08:07:38.075Z,14.30
2023-05-01T08:10:06.546Z,14.40
2023-05-01T08:12:33.273Z,14.50
2023-05-01T08:15:00.905Z,14.60
2023-05-01T08:17:27.878Z,14.70
2023-05-01T08:19:57.102Z,14.80
2023-05-01T08:22:24.509Z,14.70
2023-05-01T08:24:51.559Z,14.70
2023-05-01T08:27:19.304Z,14.70
2023-05-01T08:29:46.536Z,14.90
2023-05-01T08:32:15.028Z,15.00
2023-05-01T08:34:42.499Z,15.20
2023-05-01T08:37:09.904Z,15.30
2023-05-01T08:39:37.017Z,15.30
2023-05-01T08:42:05.611Z,15.50
2023-05-01T08:44:32.796Z,15.40
2023-05-01T08:47:12.681Z,15.60
2023-05-01T08:49:39.710Z,15.70
2023-05-01T08:52:06.885Z,15.80
2023-05-01T08:54:34.139Z,15.90
2023-05-01T08:57:03.561Z,15.90
2023-05-01T08:59:34.707Z,16.10
2023-05-01T09:02:02.740Z,16.30
2023-05-01T09:04:32.366Z,16.40
2023-05-01T09:07:00.846Z,16.30
2023-05-01T09:09:29.355Z,16.40
2023-05-01T09:12:24.949Z,16.30
2023-05-01T09:14:52.545Z,16.20
2023-05-01T09:17:19.997Z,16.30
2023-05-01T09:19:47.316Z,16.30
2023-05-01T09:22:14.674Z,16.40
2023-05-01T09:24:41.473Z,16.40
2023-05-01T09:27:09.444Z,16.40
2023-05-01T09:29:43.209Z,16.70
2023-05-01T09:32:13.824Z,16.80
2023-05-01T09:34:41.286Z,16.70
2023-05-01T09:37:08.547Z,16.80
2023-05-01T09:39:36.144Z,17.00
2023-05-01T09:42:03.360Z,17.10
2023-05-01T09:44:31.943Z,17.30
2023-05-01T09:46:58.964Z,17.30
2023-05-01T09:49:46.308Z,17.50
2023-05-01T09:52:14.710Z,17.60
2023-05-01T09:54:42.975Z,18.00
2023-05-01T09:57:09.963Z,18.10
2023-05-01T09:59:37.672Z,18.30
2023-05-01T10:02:04.670Z,18.20
2023-05-01T10:04:38.706Z,18.30
2023-05-01T10:07:14.600Z,18.50
2023-05-01T10:09:42.240Z,18.40
2023-05-01T10:12:09.474Z,18.40
2023-05-01T10:14:51.443Z,18.30
2023-05-01T10:17:19.919Z,18.80
2023-05-01T10:19:47.585Z,19.00
2023-05-01T10:22:14.339Z,19.20
2023-05-01T10:24:43.728Z,19.30
2023-05-01T10:27:11.937Z,19.50
2023-05-01T10:29:40.686Z,19.80
2023-05-01T10:32:08.407Z,20.10
2023-05-01T10:34:40.305Z,20.30
2023-05-01T10:37:13.330Z,20.60
2023-05-01T10:39:43.401Z,20.80
2023-05-01T10:42:14.245Z,21.20
2023-05-01T10:44:44.692Z,21.10
2023-05-01T10:47:28.214Z,20.70
2023-05-01T10:50:12.361Z,20.40
2023-05-01T10:53:14.424Z,20.40
2023-05-01T10:55:49.411Z,20.50
2023-05-01T10:58:54.769Z,20.30
2023-05-01T11:01:38.099Z,19.60
2023-05-01T11:04:08.534Z,19.40
2023-05-01T11:06:36.994Z,19.20
2023-05-01T11:09:38.180Z,19.00
2023-05-01T11:12:06.648Z,18.90
2023-05-01T11:15:05.698Z,18.70
2023-05-01T11:17:42.207Z,18.70
2023-05-01T11:20:38.485Z,18.60
2023-05-01T11:23:05.907Z,18.40
2023-05-01T11:25:33.756Z,18.20
2023-05-01T11:28:01.977Z,18.30
2023-05-01T11:30:38.944Z,18.20
2023-05-01T11:33:07.060Z,18.20
2023-05-01T11:35:36.275Z,18.10
2023-05-01T11:38:03.815Z,18.00
2023-05-01T11:40:34.837Z,17.90
2023-05-01T11:43:02.558Z,17.90
2023-05-01T11:45:29.950Z,18.40
2023-05-01T11:47:57.801Z,19.40
2023-05-01T11:50:40.999Z,20.20
2023-05-01T11:53:17.535Z,20.60
2023-05-01T11:55:45.564Z,20.50
2023-05-01T11:58:12.307Z,20.30
2023-05-01T12:00:42.133Z,19.80
2023-05-01T12:03:10.743Z,19.30
2023-05-01T12:05:39.267Z,18.90
2023-05-01T12:08:11.408Z,18.40
2023-05-01T12:10:40.340Z,18.20
2023-05-01T12:13:08.104Z,17.80
2023-05-01T12:15:37.566Z,17.50
2023-05-01T12:18:06.264Z,17.40
2023-05-01T12:20:44.125Z,17.30
2023-05-01T12:23:12.883Z,17.20
2023-05-01T12:25:40.983Z,17.10
2023-05-01T12:28:19.423Z,16.90
2023-05-01T12:30:49.524Z,16.90
2023-05-01T12:33:18.047Z,17.00
2023-05-01T12:35:47.220Z,16.90
2023-05-01T12:38:18.407Z,17.00
2023-05-01T12:40:59.884Z,17.00
2023-05-01T12:43:31.437Z,16.90
2023-05-01T12:45:58.590Z,16.90
2023-05-01T12:48:26.131Z,17.00
2023-05-01T12:50:56.358Z,17.20
2023-05-01T12:53:24.682Z,17.40
2023-05-01T12:55:52.968Z,17.30
2023-05-01T12:58:19.742Z,17.40
2023-05-01T13:00:49.336Z,17.30
2023-05-01T13:03:19.489Z,17.30
2023-05-01T13:06:00.272Z,17.20
2023-05-01T13:08:42.864Z,17.30
2023-05-01T13:11:14.337Z,17.60
2023-05-01T13:13:41.390Z,17.90
2023-05-01T13:16:12.862Z,18.20
2023-05-01T13:19:06.459Z,18.10
2023-05-01T13:21:34.210Z,18.30
2023-05-01T13:24:02.005Z,18.40
2023-05-01T13:26:35.840Z,18.40
2023-05-01T13:29:03.794Z,18.60
2023-05-01T13:31:30.713Z,18.70
2023-05-01T13:34:02.293Z,18.70
2023-05-01T13:36:33.119Z,18.80
2023-05-01T13:39:01.533Z,18.80
2023-05-01T13:41:28.379Z,18.70
2023-05-01T13:43:57.392Z,18.80
2023-05-01T13:46:25.501Z,18.70
2023-05-01T13:48:53.339Z,18.80
2023-05-01T13:51:24.972Z,18.60
2023-05-01T13:53:55.240Z,18.40
2023-05-01T13:56:22.346Z,18.20
2023-05-01T13:58:50.872Z,18.00
2023-05-01T14:01:20.912Z,17.70
2023-05-01T14:03:49.019Z,17.60
2023-05-01T14:06:17.190Z,17.50
2023-05-01T14:08:44.985Z,17.60
2023-05-01T14:11:12.547Z,17.60
2023-05-01T14:13:46.373Z,17.50
2023-05-01T14:16:23.858Z,17.40
2023-05-01T14:18:53.617Z,17.30
2023-05-01T14:21:20.668Z,17.20
2023-05-01T14:23:48.364Z,17.20
2023-05-01T14:26:18.907Z,17.10
2023-05-01T14:28:47.075Z,17.00
2023-05-01T14:31:17.782Z,16.90
2023-05-01T14:33:44.942Z,16.90
2023-05-01T14:36:12.401Z,16.90
2023-05-01T14:38:40.837Z,16.90
2023-05-01T14:41:12.633Z,16.80
2023-05-01T14:44:01.656Z,16.70
2023-05-01T14:46:31.434Z,16.60
2023-05-01T14:48:59.795Z,16.50
2023-05-01T14:51:27.368Z,16.40
2023-05-01T14:53:54.094Z,16.40
2023-05-01T14:56:21.614Z,16.40
2023-05-01T14:58:49.872Z,16.40
2023-05-01T15:01:18.748Z,16.30
2023-05-01T15:03:45.965Z,16.30
2023-05-01T15:06:12.847Z,16.20
2023-05-01T15:08:40.158Z,16.20
2023-05-01T15:11:07.834Z,16.20
2023-05-01T15:13:34.952Z,16.20
2023-05-01T15:16:02.776Z,16.20
2023-05-01T15:18:29.819Z,16.20
2023-05-01T15:20:57.143Z,16.00
2023-05-01T15:23:27.470Z,15.80
2023-05-01T15:25:55.220Z,15.30
2023-05-01T15:28:23.883Z,14.90
2023-05-01T15:30:52.605Z,14.40
2023-05-01T15:33:19.795Z,14.00
2023-05-01T15:35:48.649Z,13.80
2023-05-01T15:38:15.395Z,13.50
2023-05-01T15:40:45.748Z,13.30
2023-05-01T15:43:13.188Z,13.20
2023-05-01T15:45:43.502Z,13.10
2023-05-01T15:48:11.957Z,12.90
2023-05-01T15:50:39.915Z,12.80
2023-05-01T15:53:06.905Z,12.80
2023-05-01T15:55:34.882Z,12.90
2023-05-01T15:58:03.043Z,13.00
2023-05-01T16:00:30.847Z,13.00
2023-05-01T16:02:57.899Z,13.10
2023-05-01T16:05:24.856Z,13.20
2023-05-01T16:07:57.852Z,13.40
2023-05-01T16:10:25.662Z,13.50
2023-05-01T16:12:56.312Z,13.60
2023-05-01T16:15:23.668Z,13.70
2023-05-01T16:17:52.085Z,13.70
2023-05-01T16:20:19.215Z,13.70
2023-05-01T16:22:46.354Z,13.80
2023-05-01T16:25:13.223Z,14.00
2023-05-01T16:27:44.402Z,14.00
2023-05-01T16:30:16.512Z,14.10
2023-05-01T16:32:44.550Z,14.10
2023-05-01T16:35:16.816Z,14.20
2023-05-01T16:37:44.184Z,14.10
2023-05-01T16:40:15.796Z,14.20
2023-05-01T16:42:42.950Z,14.20
2023-05-01T16:45:10.767Z,14.20
2023-05-01T16:47:38.476Z,14.20
2023-05-01T16:50:08.351Z,14.20
2023-05-01T16:52:35.722Z,14.20
2023-05-01T16:55:09.392Z,14.20
2023-05-01T16:57:37.774Z,14.30
2023-05-01T17:00:08.971Z,14.30
2023-05-01T17:02:36.191Z,14.30
2023-05-01T17:05:03.935Z,14.30
2023-05-01T17:07:31.207Z,14.30
2023-05-01T17:09:58.449Z,14.20
2023-05-01T17:12:27.670Z,14.20
2023-05-01T17:14:57.697Z,14.10
2023-05-01T17:17:29.308Z,14.10
2023-05-01T17:19:56.178Z,14.10
2023-05-01T17:22:25.495Z,14.10
2023-05-01T17:24:53.320Z,14.10
2023-05-01T17:27:20.244Z,14.00
2023-05-01T17:29:47.824Z,14.00
2023-05-01T17:32:20.362Z,13.90
2023-05-01T17:34:59.708Z,14.00
2023-05-01T17:37:27.482Z,13.90
2023-05-01T17:39:54.618Z,13.90
2023-05-01T17:42:21.827Z,13.90
2023-05-01T17:44:48.743Z,13.80
2023-05-01T17:47:15.443Z,13.80
2023-05-01T17:49:42.525Z,13.80
2023-05-01T17:52:10.195Z,13.80
2023-05-01T17:54:38.354Z,13.80
2023-05-01T17:57:05.921Z,13.80
2023-05-01T17:59:33.075Z,13.80
2023-05-01T18:02:00.011Z,13.80
2023-05-01T18:04:28.725Z,13.80
2023-05-01T18:06:56.612Z,13.80
2023-05-01T18:09:24.049Z,13.80
2023-05-01T18:11:52.292Z,13.70
2023-05-01T18:14:19.446Z,13.70
2023-05-01T18:16:46.865Z,13.70
2023-05-01T18:19:14.381Z,13.60
2023-05-01T18:21:41.586Z,13.50
2023-05-01T18:24:10.131Z,13.40
2023-05-01T18:26:37.239Z,13.40
2023-05-01T18:29:04.664Z,13.30
2023-05-01T18:31:34.185Z,13.30
2023-05-01T18:34:01.930Z,13.30
2023-05-01T18:36:28.614Z,13.20
2023-05-01T18:38:56.088Z,13.20
2023-05-01T18:41:22.977Z,13.10
2023-05-01T18:43:54.268Z,13.00
2023-05-01T18:46:22.835Z,12.90
2023-05-01T18:48:50.052Z,12.80
2023-05-01T18:51:17.326Z,12.80
2023-05-01T18:53:44.525Z,12.80
2023-05-01T18:56:11.804Z,12.80
2023-05-01T18:58:40.008Z,12.80
2023-05-01T19:01:07.942Z,12.70
2023-05-01T19:03:34.987Z,12.70
2023-05-01T19:06:02.710Z,12.80
2023-05-01T19:08:31.503Z,12.80
2023-05-01T19:10:58.890Z,12.80
2023-05-01T19:13:26.268Z,12.70
2023-05-01T19:15:53.540Z,12.80
2023-05-01T19:18:20.629Z,12.80
2023-05-01T19:20:47.705Z,12.70
2023-05-01T19:23:14.759Z,12.70
2023-05-01T19:25:41.989Z,12.70
2023-05-01T19:28:09.515Z,12.70
2023-05-01T19:30:37.353Z,12.70
2023-05-01T19:33:05.601Z,12.70
2023-05-01T19:35:32.666Z,12.60
2023-05-01T19:37:59.473Z,12.60
2023-05-01T19:40:26.304Z,12.50
2023-05-01T19:42:53.487Z,12.40
2023-05-01T19:45:20.286Z,12.40
2023-05-01T19:47:47.571Z,12.30
2023-05-01T19:50:20.996Z,12.20
2023-05-01T19:52:48.246Z,12.20
2023-05-01T19:55:16.955Z,12.10
2023-05-01T19:57:44.557Z,12.00
2023-05-01T20:00:14.803Z,11.90
2023-05-01T20:02:41.943Z,11.90
2023-05-01T20:05:09.860Z,11.90
2023-05-01T20:07:37.057Z,11.80
2023-05-01T20:10:05.152Z,11.80
2023-05-01T20:12:33.306Z,11.80
2023-05-01T20:15:01.525Z,11.80
2023-05-01T20:17:28.603Z,11.70
2023-05-01T20:19:56.467Z,11.70
2023-05-01T20:22:24.488Z,11.70
2023-05-01T20:24:52.578Z,11.50
2023-05-01T20:27:19.514Z,11.40
2023-05-01T20:29:46.264Z,11.40
2023-05-01T20:32:13.380Z,11.30
2023-05-01T20:34:40.420Z,11.30
2023-05-01T20:37:07.879Z,11.30
2023-05-01T20:39:35.524Z,11.30
2023-05-01T20:42:02.732Z,11.20
2023-05-01T20:44:29.426Z,11.30
2023-05-01T20:46:56.264Z,11.30
2023-05-01T20:49:23.421Z,11.30
2023-05-01T20:51:52.587Z,11.30
2023-05-01T20:54:19.969Z,11.30
2023-05-01T20:56:48.245Z,11.30
2023-05-01T20:59:15.473Z,11.30
2023-05-01T21:01:42.320Z,11.30
2023-05-01T21:04:10.280Z,11.30
2023-05-01T21:06:37.633Z,11.30
2023-05-01T21:09:06.153Z,11.20
2023-05-01T21:11:33.674Z,11.20
2023-05-01T21:14:01.086Z,11.20
2023-05-01T21:16:28.907Z,11.10
2023-05-01T21:18:56.061Z,11.00
2023-05-01T21:21:25.219Z,10.80
2023-05-01T21:23:52.558Z,10.70
2023-05-01T21:26:19.643Z,10.50
2023-05-01T21:28:47.114Z,10.50
2023-05-01T21:31:14.735Z,10.40
2023-05-01T21:33:45.370Z,10.40
2023-05-01T21:36:12.455Z,10.30
2023-05-01T21:38:39.513Z,10.30
2023-05-01T21:41:06.564Z,10.30
2023-05-01T21:43:33.858Z,10.30
2023-05-01T21:46:01.231Z,10.20
2023-05-01T21:48:28.508Z,10.30
2023-05-01T21:50:56.750Z,10.30
2023-05-01T21:53:23.808Z,10.30
2023-05-01T21:55:51.991Z,10.30
2023-05-01T21:58:19.239Z,10.40
2023-05-01T22:00:46.232Z,10.30
2023-05-01T22:03:17.102Z,10.30
2023-05-01T22:05:44.417Z,10.20
2023-05-01T22:08:12.454Z,10.30
2023-05-01T22:10:41.000Z,10.30
2023-05-01T22:13:08.485Z,10.30
2023-05-01T22:15:35.529Z,10.30
2023-05-01T22:18:03.293Z,10.30
2023-05-01T22:20:31.170Z,10.30
2023-05-01T22:22:58.429Z,10.20
2023-05-01T22:25:25.495Z,10.20
2023-05-01T22:27:52.900Z,10.20
2023-05-01T22:30:20.272Z,10.10
2023-05-01T22:32:47.174Z,10.10
2023-05-01T22:35:14.176Z,10.10
2023-05-01T22:37:41.205Z,10.10
2023-05-01T22:40:09.592Z,10.10
2023-05-01T22:42:36.861Z,10.20
2023-05-01T22:45:04.848Z,10.10
2023-05-01T22:47:32.108Z,10.00
2023-05-01T22:49:59.030Z,10.00
2023-05-01T22:52:27.301Z,10.10
2023-05-01T22:54:54.336Z,10.00
2023-05-01T22:57:21.751Z,10.10
2023-05-01T22:59:49.702Z,10.10
2023-05-01T23:02:17.590Z,10.00
2023-05-01T23:04:44.522Z,9.90
2023-05-01T23:07:13.646Z,9.90
2023-05-01T23:09:41.362Z,9.70
2023-05-01T23:12:08.254Z,9.60
2023-05-01T23:14:36.720Z,9.60
2023-05-01T23:17:03.952Z,9.50
2023-05-01T23:19:31.265Z,9.50
2023-05-01T23:22:08.566Z,9.40
2023-05-01T23:24:49.834Z,9.20
2023-05-01T23:27:18.577Z,9.20
2023-05-01T23:29:59.403Z,9.20
2023-05-01T23:32:30.956Z,9.20
2023-05-01T23:35:03.598Z,9.20
2023-05-01T23:37:30.346Z,9.20
2023-05-01T23:40:00.145Z,9.20
2023-05-01T23:42:28.170Z,9.10
2023-05-01T23:44:56.341Z,9.10
2023-05-01T23:47:23.702Z,9.10
2023-05-01T23:49:51.233Z,9.10
2023-05-01T23:52:18.258Z,9.00
2023-05-01T23:54:45.193Z,9.00
2023-05-01T23:57:12.556Z,9.10
2023-05-01T23:59:39.601Z,9.10
